Serafimovic, Russia
Current Conditions -  °F | °C
As of 8:30 AM on Thursday 27 Nov 2014 (Local Time) from URWW Reporting Station
Clear Clear  
Wind Chill:   Ceiling: Unl
Heat Index: 18°   Visibility: 6mi
Dew Point:   Wind: 18mph
Humidity: 53%   Direction: 80°E
Pressure: 30.39"   Gusts: NA
Location:  49.57°N, 42.75°E
Report Text: URWW 270530Z 08008MPS CAVOK M08/M16 Q1029 NOSIG RMK 11CLRD70
Loading
Personal Weather Stations






























Interactive Weather Map New forecast layout! Learn more

10-Day Weather Forecast

Advertisements
Track Severe Weather on mobile